Bookmark and Share
Track history (hours):
 

Sipu Muin

Last reported at 2014-Apr-17 12:33 UTC. Time now 2014-Apr-24 01:56 UTC.
Position N 46°27' W 072°16'.

Type: High speed craft. MMSI: 316001988.

NotesDate/timePositionNaut miles runAvg speedWind from/ knotsBaromVisibWave heightAir tempDewpointWater temp
2014-Apr-17 12:33N 46°27' W 072°16'  
2014-Apr-14 14:33N 46°32' W 072°13'27 1.3
2014-Apr-13 18:33N 46°17' W 072°45'13 2.4
2014-Apr-13 13:24N 46°06' W 072°53'1417.1
2014-Apr-13 12:33N 46°16' W 072°39'4 0.3
2014-Apr-12 20:34N 46°19' W 072°34'4235.9
2014-Apr-12 19:24N 45°50' W 073°17'1416.2
2014-Apr-12 18:33N 45°41' W 073°32'13 6.4
2014-Apr-12 16:28N 45°50' W 073°18'1010.7
2014-Apr-12 15:34N 45°43' W 073°27'8 8.5
2014-Apr-12 14:34N 45°38' W 073°37'4 3.6
2014-Apr-12 13:33N 45°40' W 073°33'4734.8
2014-Apr-12 12:12N 46°14' W 072°45'12 0.7
2014-Apr-11 18:33N 46°20' W 072°31'4 3.8
2014-Apr-11 17:33N 46°21' W 072°26'1 0.9
2014-Apr-11 16:33N 46°22' W 072°27'0 0.4
2014-Apr-11 15:33N 46°23' W 072°27'5426.8
2014-Apr-11 13:33N 45°46' W 073°23'9 8.6
2014-Apr-11 12:34N 45°42' W 073°34'8 0.5
2014-Apr-10 20:03N 45°35' W 073°29'711.2
2014-Apr-10 19:26N 45°42' W 073°30'3 3.3
2014-Apr-10 18:33N 45°40' W 073°33'2 1.6
2014-Apr-10 17:33N 45°42' W 073°33'3 3.0
2014-Apr-10 16:31N 45°42' W 073°29'1 0.9
2014-Apr-10 15:33N 45°42' W 073°30'1 1.5
2014-Apr-10 14:33N 45°41' W 073°32'2 1.7
2014-Apr-10 13:34N 45°42' W 073°30'1 0.9
2014-Apr-10 12:33N 45°42' W 073°29'2 0.1
2014-Apr-09 17:33N 45°42' W 073°31'5 0.9
2014-Apr-09 12:34N 45°37' W 073°29'2 0.1
2014-Apr-08 20:33N 45°35' W 073°29'7 7.0
2014-Apr-08 19:33N 45°42' W 073°30'0 0.1
2014-Apr-08 18:33N 45°42' W 073°29'0 0.3
2014-Apr-08 17:33N 45°42' W 073°29'0 0.1
2014-Apr-08 16:33N 45°42' W 073°29'0 0.2
2014-Apr-08 15:33N 45°42' W 073°29'0 0.0
2014-Apr-08 14:33N 45°42' W 073°29'1 1.4
2014-Apr-08 13:34N 45°42' W 073°31'7 6.9
2014-Apr-08 12:32N 45°35' W 073°29'0 0.0
2014-Apr-08 11:33N 45°35' W 073°29'0 0.0
2014-Apr-08 00:10N 45°35' W 073°29'0 0.0
2014-Apr-07 20:24N 45°35' W 073°29'7 8.7
2014-Apr-07 19:33N 45°42' W 073°30'1 0.5
2014-Apr-07 17:34N 45°42' W 073°29'0 0.2
2014-Apr-07 16:33N 45°42' W 073°29'7 7.3
2014-Apr-07 15:33N 45°35' W 073°29'0 0.1
2014-Apr-07 14:28N 45°35' W 073°29'0 0.0
2014-Apr-07 13:33N 45°35' W 073°29'  

Dump ship's entire track history

sailing weather and tide predictions

Sipu Muin — CHCGA — position and weather